Ballston Spa, New York
Current Conditions -  °F | °C
As of 12:51 AM on Tuesday 21 Oct 2014 (Local Time) from KALB Reporting Station
Overcast Overcast  
Wind Chill: 52°   Ceiling: 10000
Heat Index: 52°   Visibility: 10mi
Dew Point: 38°   Wind: 7mph
Humidity: 59%   Direction: 180°S
Pressure: 29.93"   Gusts: NA
Location:  43°N, 73.85°W
Report Text: KALB 210451Z 18006KT 10SM OVC100 11/03 A2993 RMK AO2 SLP134 T01110033 401331006
Loading
Personal Weather Stations






























Interactive Weather Map
Tropical Storm Tracking
New forecast layout! Learn more

10-Day Weather Forecast

Advertisements
Track Severe Weather on mobile